createdAt,value
2022-10-13T00:00:49.296Z,18.48
2022-10-13T00:03:51.549Z,18.47
2022-10-13T00:06:53.622Z,18.46
2022-10-13T00:09:55.661Z,18.44
2022-10-13T00:12:57.696Z,18.44
2022-10-13T00:16:02.960Z,18.43
2022-10-13T00:19:05.052Z,18.44
2022-10-13T00:22:10.165Z,18.44
2022-10-13T00:25:12.280Z,18.44
2022-10-13T00:28:16.195Z,18.42
2022-10-13T00:31:20.135Z,18.43
2022-10-13T00:34:22.178Z,18.42
2022-10-13T00:37:25.299Z,18.41
2022-10-13T00:40:27.365Z,18.41
2022-10-13T00:43:53.761Z,18.39
2022-10-13T00:46:55.883Z,18.40
2022-10-13T00:49:58.198Z,18.40
2022-10-13T00:53:01.767Z,18.39
2022-10-13T00:56:07.621Z,18.40
2022-10-13T00:59:23.185Z,18.38
2022-10-13T01:02:31.433Z,18.38
2022-10-13T01:05:34.031Z,18.39
2022-10-13T01:08:36.532Z,18.38
2022-10-13T01:12:08.234Z,18.37
2022-10-13T01:15:33.169Z,18.36
2022-10-13T01:18:44.990Z,18.36
2022-10-13T01:22:27.912Z,18.35
2022-10-13T01:25:48.545Z,18.35
2022-10-13T01:29:28.248Z,18.34
2022-10-13T01:32:42.664Z,18.35
2022-10-13T01:35:49.321Z,18.34
2022-10-13T01:39:00.981Z,18.33
2022-10-13T01:42:13.223Z,18.34
2022-10-13T01:45:21.455Z,18.33
2022-10-13T01:48:25.360Z,18.32
2022-10-13T01:51:30.150Z,18.32
2022-10-13T01:54:33.528Z,18.30
2022-10-13T01:57:44.525Z,18.29
2022-10-13T02:01:04.214Z,18.29
2022-10-13T02:04:25.064Z,18.27
2022-10-13T02:07:36.205Z,18.29
2022-10-13T02:10:58.740Z,18.28
2022-10-13T02:14:06.648Z,18.28
2022-10-13T02:17:09.607Z,18.27
2022-10-13T02:20:12.132Z,18.27
2022-10-13T02:23:17.696Z,18.26
2022-10-13T02:26:19.879Z,18.25
2022-10-13T02:29:22.155Z,18.25
2022-10-13T02:32:24.627Z,18.25
2022-10-13T02:35:26.724Z,18.25
2022-10-13T02:38:28.739Z,18.24
2022-10-13T02:41:31.203Z,18.25
2022-10-13T02:44:33.277Z,18.23
2022-10-13T02:47:35.621Z,18.22
2022-10-13T02:50:37.912Z,18.22
2022-10-13T02:53:39.932Z,18.21
2022-10-13T02:56:41.961Z,18.22
2022-10-13T02:59:44.283Z,18.21
2022-10-13T03:02:46.475Z,18.20
2022-10-13T03:05:48.703Z,18.20
2022-10-13T03:08:50.918Z,18.18
2022-10-13T03:11:53.115Z,18.19
2022-10-13T03:14:55.147Z,18.19
2022-10-13T03:17:57.138Z,18.18
2022-10-13T03:21:01.519Z,18.18
2022-10-13T03:24:05.537Z,18.17
2022-10-13T03:27:07.668Z,18.15
2022-10-13T03:30:10.602Z,18.15
2022-10-13T03:33:12.819Z,18.15
2022-10-13T03:36:14.931Z,18.15
2022-10-13T03:39:17.055Z,18.14
2022-10-13T03:42:19.255Z,18.14
2022-10-13T03:45:21.584Z,18.13
2022-10-13T03:48:24.038Z,18.13
2022-10-13T03:51:26.290Z,18.12
2022-10-13T03:54:28.350Z,18.11
2022-10-13T03:57:30.695Z,18.12
2022-10-13T04:00:34.869Z,18.11
2022-10-13T04:03:36.965Z,18.10
2022-10-13T04:06:39.467Z,18.11
2022-10-13T04:09:41.531Z,18.10
2022-10-13T04:12:43.573Z,18.09
2022-10-13T04:15:45.572Z,18.09
2022-10-13T04:18:52.699Z,18.08
2022-10-13T04:21:54.739Z,18.09
2022-10-13T04:24:56.732Z,18.07
2022-10-13T04:27:59.265Z,18.07
2022-10-13T04:31:04.515Z,18.06
2022-10-13T04:34:07.695Z,18.05
2022-10-13T04:37:09.722Z,18.06
2022-10-13T04:40:11.841Z,18.05
2022-10-13T04:43:15.775Z,18.04
2022-10-13T04:46:20.409Z,18.05
2022-10-13T04:49:22.421Z,18.04
2022-10-13T04:52:24.449Z,18.03
2022-10-13T04:55:27.018Z,18.03
2022-10-13T04:58:29.520Z,18.03
2022-10-13T05:01:32.553Z,18.03
2022-10-13T05:04:34.925Z,18.00
2022-10-13T05:07:37.062Z,18.00
2022-10-13T05:10:39.513Z,18.02
2022-10-13T05:13:41.637Z,18.02
2022-10-13T05:16:43.651Z,18.02
2022-10-13T05:19:45.833Z,18.00
2022-10-13T05:22:48.043Z,18.00
2022-10-13T05:25:50.101Z,17.99
2022-10-13T05:28:52.446Z,17.99
2022-10-13T05:31:54.630Z,18.00
2022-10-13T05:34:56.677Z,18.02
2022-10-13T05:37:58.741Z,18.02
2022-10-13T05:41:09.991Z,18.03
2022-10-13T05:44:12.036Z,18.05
2022-10-13T05:47:14.110Z,18.07
2022-10-13T05:50:16.412Z,18.09
2022-10-13T05:53:18.601Z,18.08
2022-10-13T05:56:24.822Z,18.05
2022-10-13T05:59:29.200Z,18.04
2022-10-13T06:02:39.697Z,18.04
2022-10-13T06:05:43.223Z,18.04
2022-10-13T06:08:45.554Z,18.04
2022-10-13T06:11:47.559Z,18.02
2022-10-13T06:14:49.579Z,18.03
2022-10-13T06:17:51.717Z,18.03
2022-10-13T06:20:53.740Z,18.03
2022-10-13T06:23:55.907Z,18.03
2022-10-13T06:26:57.993Z,18.04
2022-10-13T06:30:00.184Z,18.03
2022-10-13T06:33:02.251Z,18.04
2022-10-13T06:36:05.656Z,18.04
2022-10-13T06:39:08.463Z,18.03
2022-10-13T06:42:10.501Z,18.03
2022-10-13T06:45:12.599Z,18.00
2022-10-13T06:48:14.612Z,17.99
2022-10-13T06:51:16.954Z,18.00
2022-10-13T06:54:21.561Z,18.00
2022-10-13T06:57:23.596Z,17.99
2022-10-13T07:00:25.647Z,17.99
2022-10-13T07:03:27.908Z,18.00
2022-10-13T07:06:29.902Z,18.02
2022-10-13T07:09:32.059Z,18.03
2022-10-13T07:12:34.075Z,18.06
2022-10-13T07:15:40.250Z,18.06
2022-10-13T07:18:42.405Z,18.06
2022-10-13T07:21:44.612Z,18.06
2022-10-13T07:24:47.114Z,18.06
2022-10-13T07:27:49.213Z,18.06
2022-10-13T07:30:51.359Z,18.05
2022-10-13T07:33:57.023Z,18.05
2022-10-13T07:36:59.055Z,18.04
2022-10-13T07:40:01.150Z,18.04
2022-10-13T07:43:03.329Z,18.05
2022-10-13T07:46:06.433Z,18.04
2022-10-13T07:49:11.158Z,18.05
2022-10-13T07:52:15.836Z,18.05
2022-10-13T07:55:17.934Z,18.04
2022-10-13T07:58:19.951Z,18.03
2022-10-13T08:01:21.987Z,18.04
2022-10-13T08:04:24.070Z,18.03
2022-10-13T08:07:26.120Z,18.03
2022-10-13T08:10:29.252Z,18.02
2022-10-13T08:13:31.363Z,18.00
2022-10-13T08:16:33.534Z,17.99
2022-10-13T08:19:35.613Z,17.99
2022-10-13T08:22:37.615Z,17.99
2022-10-13T08:25:41.004Z,17.99
2022-10-13T08:28:57.555Z,18.00
2022-10-13T08:32:05.311Z,18.03
2022-10-13T08:35:07.629Z,18.03
2022-10-13T08:38:09.793Z,18.03
2022-10-13T08:41:21.399Z,18.05
2022-10-13T08:47:52.417Z,18.08
2022-10-13T08:50:59.534Z,18.07
2022-10-13T08:54:01.844Z,18.05
2022-10-13T08:57:06.513Z,18.05
2022-10-13T09:00:12.801Z,18.04
2022-10-13T09:03:26.569Z,18.05
2022-10-13T09:06:42.537Z,18.06
2022-10-13T09:09:44.682Z,18.05
2022-10-13T09:12:46.696Z,18.05
2022-10-13T09:15:52.762Z,18.06
2022-10-13T09:18:54.937Z,18.05
2022-10-13T09:22:19.275Z,18.04
2022-10-13T09:25:22.807Z,18.04
2022-10-13T09:28:32.139Z,18.03
2022-10-13T09:31:35.514Z,18.02
2022-10-13T09:34:37.765Z,18.02
2022-10-13T09:37:39.834Z,18.03
2022-10-13T09:43:48.667Z,18.04
2022-10-13T09:47:00.361Z,18.04
2022-10-13T09:50:29.794Z,18.06
2022-10-13T09:53:38.168Z,18.06
2022-10-13T09:56:46.121Z,18.06
2022-10-13T09:59:55.146Z,18.05
2022-10-13T10:03:03.079Z,18.05
2022-10-13T10:06:08.030Z,18.06
2022-10-13T10:09:39.229Z,18.06
2022-10-13T10:12:43.236Z,18.07
2022-10-13T10:15:55.940Z,18.06
2022-10-13T10:19:10.834Z,18.08
2022-10-13T10:22:42.392Z,18.09
2022-10-13T10:25:51.955Z,18.11
2022-10-13T10:29:12.523Z,18.09
2022-10-13T10:32:29.074Z,18.09
2022-10-13T10:36:18.647Z,18.08
2022-10-13T10:39:36.549Z,18.09
2022-10-13T10:43:12.068Z,18.10
2022-10-13T10:46:27.878Z,18.12
2022-10-13T10:49:29.942Z,18.12
2022-10-13T10:52:44.864Z,18.13
2022-10-13T10:55:55.913Z,18.14
2022-10-13T10:59:36.610Z,18.14
2022-10-13T11:02:55.394Z,18.15
2022-10-13T11:05:57.380Z,18.15
2022-10-13T11:08:59.562Z,18.17
2022-10-13T11:12:01.795Z,18.18
2022-10-13T11:15:09.940Z,18.21
2022-10-13T11:18:49.720Z,18.24
2022-10-13T11:21:54.725Z,18.26
2022-10-13T11:25:01.741Z,18.26
2022-10-13T11:28:22.147Z,18.27
2022-10-13T11:31:47.399Z,18.25
2022-10-13T11:35:10.663Z,18.26
2022-10-13T11:38:26.147Z,18.24
2022-10-13T11:41:34.264Z,18.23
2022-10-13T11:44:45.671Z,18.23
2022-10-13T11:48:11.018Z,18.21
2022-10-13T11:51:25.869Z,18.22
2022-10-13T11:54:39.804Z,18.21
2022-10-13T11:57:41.983Z,18.21
2022-10-13T12:01:13.887Z,18.22
2022-10-13T12:04:16.458Z,18.22
2022-10-13T12:07:23.548Z,18.22
2022-10-13T12:10:30.517Z,18.21
2022-10-13T12:13:34.376Z,18.21
2022-10-13T12:16:36.519Z,18.24
2022-10-13T12:19:40.596Z,18.27
2022-10-13T12:22:48.452Z,18.32
2022-10-13T12:25:56.953Z,18.33
2022-10-13T12:29:03.550Z,18.36
2022-10-13T12:32:22.341Z,18.34
2022-10-13T12:35:31.064Z,18.35
2022-10-13T12:38:33.355Z,18.38
2022-10-13T12:41:43.637Z,18.38
2022-10-13T12:44:46.145Z,18.39
2022-10-13T12:47:50.229Z,18.41
2022-10-13T12:50:52.371Z,18.39
2022-10-13T12:53:55.015Z,18.39
2022-10-13T12:57:00.556Z,18.38
2022-10-13T13:00:18.848Z,18.38
2022-10-13T13:03:26.095Z,18.36
2022-10-13T13:06:37.769Z,18.35
2022-10-13T13:09:41.059Z,18.25
2022-10-13T13:12:44.236Z,18.19
2022-10-13T13:15:46.257Z,18.20
2022-10-13T13:18:49.837Z,18.18
2022-10-13T13:24:54.871Z,18.22
2022-10-13T13:27:56.952Z,18.20
2022-10-13T13:30:59.922Z,18.21
2022-10-13T13:34:01.996Z,18.20
2022-10-13T13:37:04.083Z,18.20
2022-10-13T13:40:08.562Z,18.18
2022-10-13T13:43:10.876Z,18.19
2022-10-13T13:46:24.514Z,18.18
2022-10-13T13:49:26.576Z,18.18
2022-10-13T13:52:28.622Z,18.18
2022-10-13T13:55:30.834Z,18.14
2022-10-13T13:58:32.850Z,18.14
2022-10-13T14:01:35.211Z,18.17
2022-10-13T14:04:37.281Z,18.15
2022-10-13T14:07:40.043Z,18.17
2022-10-13T14:10:42.074Z,18.17
2022-10-13T14:13:44.253Z,18.15
2022-10-13T14:16:46.346Z,18.15
2022-10-13T14:19:48.497Z,18.17
2022-10-13T14:22:50.537Z,18.14
2022-10-13T14:25:52.563Z,18.14
2022-10-13T14:28:54.780Z,18.14
2022-10-13T14:31:59.537Z,18.12
2022-10-13T14:35:01.602Z,18.14
2022-10-13T14:38:03.861Z,18.14
2022-10-13T14:41:06.676Z,18.15
2022-10-13T14:44:12.764Z,18.14
2022-10-13T14:47:14.923Z,18.13
2022-10-13T14:50:17.148Z,18.14
2022-10-13T14:53:21.228Z,18.14
2022-10-13T14:56:25.715Z,18.15
2022-10-13T14:59:29.980Z,18.18
2022-10-13T15:02:32.061Z,18.17
2022-10-13T15:05:45.754Z,18.17
2022-10-13T15:08:50.927Z,18.15
2022-10-13T15:11:52.959Z,18.14
2022-10-13T15:14:54.959Z,18.12
2022-10-13T15:17:57.120Z,18.11
2022-10-13T15:20:59.211Z,18.11
2022-10-13T15:24:01.608Z,18.11
2022-10-13T15:27:03.877Z,18.10
2022-10-13T15:30:09.973Z,18.10
2022-10-13T15:33:11.964Z,18.09
2022-10-13T15:36:14.175Z,18.10
2022-10-13T15:39:16.295Z,18.09
2022-10-13T15:42:18.448Z,18.11
2022-10-13T15:45:20.641Z,18.12
2022-10-13T15:48:23.147Z,18.11
2022-10-13T15:51:26.786Z,18.11
2022-10-13T15:54:29.046Z,18.12
2022-10-13T15:57:31.740Z,18.12
2022-10-13T16:00:35.654Z,18.12
2022-10-13T16:03:38.028Z,18.12
2022-10-13T16:06:40.057Z,18.12
2022-10-13T16:09:42.049Z,18.11
2022-10-13T16:12:49.440Z,18.13
2022-10-13T16:15:58.693Z,18.13
2022-10-13T16:19:00.922Z,18.12
2022-10-13T16:22:02.912Z,18.14
2022-10-13T16:25:05.204Z,18.12
2022-10-13T16:28:07.355Z,18.13
2022-10-13T16:31:13.300Z,18.13
2022-10-13T16:34:16.024Z,18.13
2022-10-13T16:37:18.355Z,18.13
2022-10-13T16:40:20.765Z,18.11
2022-10-13T16:43:22.858Z,18.10
2022-10-13T16:46:24.917Z,18.12
2022-10-13T16:49:27.056Z,18.12
2022-10-13T16:52:29.857Z,18.12
2022-10-13T16:55:31.884Z,18.12
2022-10-13T16:58:34.511Z,18.10
2022-10-13T17:01:37.133Z,18.11
2022-10-13T17:04:39.174Z,18.11
2022-10-13T17:07:41.325Z,18.10
2022-10-13T17:10:43.619Z,18.10
2022-10-13T17:13:46.131Z,18.09
2022-10-13T17:16:48.142Z,18.09
2022-10-13T17:19:50.209Z,18.09
2022-10-13T17:22:52.247Z,18.10
2022-10-13T17:25:55.292Z,18.09
2022-10-13T17:28:57.459Z,18.07
2022-10-13T17:32:01.344Z,18.08
2022-10-13T17:35:03.388Z,18.09
2022-10-13T17:38:06.396Z,18.07
2022-10-13T17:41:09.409Z,18.08
2022-10-13T17:44:11.693Z,18.07
2022-10-13T17:47:13.744Z,18.07
2022-10-13T17:50:16.563Z,18.06
2022-10-13T17:53:18.583Z,18.07
2022-10-13T17:56:22.847Z,18.05
2022-10-13T17:59:25.106Z,18.05
2022-10-13T18:02:27.132Z,18.06
2022-10-13T18:05:29.250Z,18.06
2022-10-13T18:08:33.217Z,18.05
2022-10-13T18:11:36.131Z,18.04
2022-10-13T18:14:38.149Z,18.05
2022-10-13T18:17:40.375Z,18.04
2022-10-13T18:20:42.412Z,18.05
2022-10-13T18:23:45.095Z,18.04
2022-10-13T18:26:47.368Z,18.03
2022-10-13T18:29:49.425Z,18.03
2022-10-13T18:32:51.444Z,18.02
2022-10-13T18:35:53.445Z,18.05
2022-10-13T18:39:00.320Z,18.03
2022-10-13T18:42:02.365Z,18.03
2022-10-13T18:45:04.904Z,18.03
2022-10-13T18:48:07.671Z,18.03
2022-10-13T18:51:14.962Z,18.03
2022-10-13T18:54:17.080Z,18.02
2022-10-13T18:57:19.326Z,18.02
2022-10-13T19:00:22.139Z,18.02
2022-10-13T19:03:24.342Z,18.02
2022-10-13T19:06:27.542Z,18.00
2022-10-13T19:09:30.194Z,18.00
2022-10-13T19:12:32.265Z,18.02
2022-10-13T19:15:34.403Z,18.02
2022-10-13T19:18:36.919Z,17.99
2022-10-13T19:21:39.836Z,17.99
2022-10-13T19:24:42.061Z,17.99
2022-10-13T19:27:44.042Z,18.00
2022-10-13T19:30:46.497Z,17.99
2022-10-13T19:33:50.201Z,17.98
2022-10-13T19:36:56.455Z,17.98
2022-10-13T19:39:58.718Z,17.97
2022-10-13T19:43:00.904Z,17.97
2022-10-13T19:46:07.051Z,17.97
2022-10-13T19:49:11.066Z,17.98
2022-10-13T19:52:13.372Z,17.98
2022-10-13T19:55:15.470Z,17.97
2022-10-13T19:58:18.037Z,17.97
2022-10-13T20:01:21.214Z,17.96
2022-10-13T20:04:23.630Z,17.96
2022-10-13T20:07:25.968Z,17.97
2022-10-13T20:10:28.038Z,17.98
2022-10-13T20:13:30.109Z,17.96
2022-10-13T20:16:32.214Z,17.96
2022-10-13T20:19:34.259Z,17.97
2022-10-13T20:22:36.339Z,17.97
2022-10-13T20:25:38.506Z,17.97
2022-10-13T20:28:43.518Z,17.97
2022-10-13T20:31:45.991Z,17.94
2022-10-13T20:34:48.092Z,17.96
2022-10-13T20:37:50.123Z,17.97
2022-10-13T20:40:52.297Z,17.94
2022-10-13T20:43:56.467Z,17.95
2022-10-13T20:46:58.530Z,17.95
2022-10-13T20:50:00.554Z,17.95
2022-10-13T20:53:03.689Z,17.96
2022-10-13T20:56:07.154Z,17.95
2022-10-13T20:59:11.771Z,17.94
2022-10-13T21:02:14.010Z,17.93
2022-10-13T21:05:16.329Z,17.94
2022-10-13T21:08:19.451Z,17.94
2022-10-13T21:11:23.470Z,17.94
2022-10-13T21:14:25.586Z,17.93
2022-10-13T21:17:29.836Z,17.93
2022-10-13T21:20:33.020Z,17.93
2022-10-13T21:23:35.674Z,17.91
2022-10-13T21:26:37.980Z,17.92
2022-10-13T21:29:40.004Z,17.92
2022-10-13T21:32:42.114Z,17.92
2022-10-13T21:35:44.184Z,17.93
2022-10-13T21:38:47.872Z,17.91
2022-10-13T21:41:49.989Z,17.90
2022-10-13T21:44:52.073Z,17.92
2022-10-13T21:47:54.399Z,17.91
2022-10-13T21:50:56.571Z,17.90
2022-10-13T21:54:01.198Z,17.91
2022-10-13T21:57:03.247Z,17.91
2022-10-13T22:00:06.064Z,17.91
2022-10-13T22:03:09.283Z,17.90
2022-10-13T22:06:18.755Z,17.89
2022-10-13T22:09:21.510Z,17.90
2022-10-13T22:12:23.580Z,17.90
2022-10-13T22:15:25.627Z,17.89
2022-10-13T22:18:27.696Z,17.88
2022-10-13T22:21:32.940Z,17.89
2022-10-13T22:24:34.935Z,17.89
2022-10-13T22:27:36.984Z,17.89
2022-10-13T22:30:39.150Z,17.89
2022-10-13T22:33:42.766Z,17.89
2022-10-13T22:36:45.566Z,17.88
2022-10-13T22:39:47.732Z,17.88
2022-10-13T22:42:49.843Z,17.89
2022-10-13T22:45:52.288Z,17.88
2022-10-13T22:48:55.024Z,17.87
2022-10-13T22:51:57.044Z,17.87
2022-10-13T22:54:59.072Z,17.87
2022-10-13T22:58:01.054Z,17.88
2022-10-13T23:01:14.838Z,17.87
2022-10-13T23:04:16.905Z,17.87
2022-10-13T23:07:19.188Z,17.87
2022-10-13T23:10:21.652Z,17.88
2022-10-13T23:13:23.795Z,17.85
2022-10-13T23:16:27.434Z,17.85
2022-10-13T23:19:29.465Z,17.85
2022-10-13T23:22:31.688Z,17.83
2022-10-13T23:25:37.919Z,17.85
2022-10-13T23:28:40.407Z,17.87
2022-10-13T23:31:42.442Z,17.85
2022-10-13T23:34:45.255Z,17.85
2022-10-13T23:37:47.302Z,17.84
2022-10-13T23:40:49.684Z,17.84
2022-10-13T23:43:52.165Z,17.84
2022-10-13T23:46:54.159Z,17.83
2022-10-13T23:49:56.200Z,17.83
2022-10-13T23:52:58.302Z,17.83
2022-10-13T23:56:02.499Z,17.83
2022-10-13T23:59:05.706Z,17.84
